Time;durP1;ratioP1;P1;durP2;ratioP2;P2;SDS_P1;SDS_P2;PMS_P1;PMS_P2;Temp;Humidity;BMP_temperature;BMP_pressure;BME280_temperature;BME280_humidity;BME280_pressure;Samples;Min_cycle;Max_cycle;Signal;HPM_P1;HPM_P2
2023/02/03 00:02:36;;;;;;;4.90;3.10;;;;;;;0.46;95.20;100825.34;107797;1254;80717;-58
2023/02/03 00:05:12;;;;;;;4.60;3.30;;;;;;;0.39;95.02;100822.36;107766;1250;82114;-58
2023/02/03 00:07:49;;;;;;;5.50;2.90;;;;;;;0.29;94.91;100817.39;107721;1250;95460;-60
2023/02/03 00:10:26;;;;;;;5.60;2.70;;;;;;;0.20;94.74;100814.05;107746;1250;87957;-57
2023/02/03 00:13:04;;;;;;;6.40;3.70;;;;;;;0.08;94.93;100816.31;107646;1257;95823;-56
2023/02/03 00:15:43;;;;;;;6.40;2.90;;;;;;;-0.04;94.67;100818.96;107694;1250;79784;-58
2023/02/03 00:18:30;;;;;;;5.30;2.80;;;;;;;-0.14;94.53;100824.31;107753;1250;82457;-56
2023/02/03 00:21:10;;;;;;;5.60;2.90;;;;;;;-0.24;94.52;100832.29;107695;1250;99116;-56
2023/02/03 00:23:47;;;;;;;4.00;2.70;;;;;;;-0.33;94.59;100830.66;107733;1251;87237;-59
2023/02/03 00:26:27;;;;;;;6.00;2.90;;;;;;;-0.37;94.65;100831.46;107723;1250;94380;-58
2023/02/03 00:29:05;;;;;;;5.70;2.80;;;;;;;-0.43;94.44;100834.21;107739;1250;79558;-56
2023/02/03 00:31:46;;;;;;;4.80;2.70;;;;;;;-0.47;94.57;100835.93;107703;1252;81146;-56
2023/02/03 00:34:30;;;;;;;4.00;2.70;;;;;;;-0.49;94.62;100835.90;107742;1250;97261;-56
2023/02/03 00:37:12;;;;;;;5.10;2.70;;;;;;;-0.47;94.66;100836.69;107690;1250;88706;-56
2023/02/03 00:39:53;;;;;;;5.20;2.70;;;;;;;-0.50;94.57;100839.73;107716;1252;95594;-56
2023/02/03 00:42:36;;;;;;;4.20;2.80;;;;;;;-0.55;94.58;100842.48;107677;1250;80486;-56
2023/02/03 00:45:12;;;;;;;6.40;2.70;;;;;;;-0.62;94.50;100843.69;107752;1250;80111;-56
2023/02/03 00:47:53;;;;;;;4.60;2.60;;;;;;;-0.66;94.41;100848.55;107733;1254;98095;-56
2023/02/03 00:50:30;;;;;;;6.00;3.10;;;;;;;-0.66;94.44;100854.95;107730;1256;88976;-59
2023/02/03 00:53:09;;;;;;;4.20;2.60;;;;;;;-0.67;94.49;100859.95;107733;1250;94458;-58
2023/02/03 00:55:45;;;;;;;4.40;2.50;;;;;;;-0.70;94.43;100859.27;107743;1250;81653;-56
2023/02/03 00:58:20;;;;;;;5.80;3.00;;;;;;;-0.72;94.44;100859.11;107726;1250;81935;-59
2023/02/03 01:00:58;;;;;;;5.00;3.00;;;;;;;-0.73;94.56;100861.06;107708;1254;97956;-58
2023/02/03 01:03:34;;;;;;;6.20;2.70;;;;;;;-0.69;94.50;100857.82;107740;1254;89475;-58
2023/02/03 01:06:20;;;;;;;4.50;2.60;;;;;;;-0.64;94.68;100859.27;107705;1256;95881;-58
2023/02/03 01:09:02;;;;;;;5.30;2.60;;;;;;;-0.59;94.71;100861.20;107696;1251;79423;-58
2023/02/03 01:11:42;;;;;;;5.50;2.60;;;;;;;-0.51;94.74;100858.02;107707;1254;81974;-58
2023/02/03 01:14:27;;;;;;;4.30;2.30;;;;;;;-0.44;94.73;100858.52;107705;1253;98841;-56
2023/02/03 01:17:04;;;;;;;4.20;2.30;;;;;;;-0.34;94.88;100863.85;107738;1250;89325;-56
2023/02/03 01:19:39;;;;;;;7.40;3.30;;;;;;;-0.28;94.90;100869.05;107712;1249;93405;-59
2023/02/03 01:22:22;;;;;;;6.60;3.10;;;;;;;-0.20;94.80;100859.82;107701;1250;81989;-59
2023/02/03 01:24:57;;;;;;;9.70;4.80;;;;;;;-0.13;94.70;100860.20;107736;1250;80535;-57
2023/02/03 01:27:35;;;;;;;8.20;4.00;;;;;;;-0.10;94.77;100862.81;107679;1250;99753;-57
2023/02/03 01:30:11;;;;;;;12.30;5.50;;;;;;;-0.10;94.59;100861.03;107721;1253;87055;-58
2023/02/03 01:32:58;;;;;;;8.00;3.80;;;;;;;-0.08;94.44;100859.83;107738;1254;95689;-59
2023/02/03 01:35:38;;;;;;;7.60;3.90;;;;;;;-0.11;94.47;100860.71;107712;1252;79907;-54
2023/02/03 01:38:13;;;;;;;5.80;3.00;;;;;;;-0.12;94.43;100865.56;107765;1250;82803;-56
2023/02/03 01:40:56;;;;;;;10.10;4.40;;;;;;;-0.16;94.44;100874.21;107708;1250;98600;-56
2023/02/03 01:43:41;;;;;;;9.70;3.30;;;;;;;-0.15;94.36;100871.88;107735;1254;88614;-58
2023/02/03 01:46:28;;;;;;;9.30;4.70;;;;;;;-0.20;94.23;100868.64;107676;1250;93469;-58
2023/02/03 01:49:13;;;;;;;11.90;4.60;;;;;;;-0.20;94.19;100864.22;107721;1253;78600;-58
2023/02/03 01:51:58;;;;;;;9.50;3.20;;;;;;;-0.23;94.30;100852.23;107686;1250;83274;-58
2023/02/03 01:54:47;;;;;;;13.20;4.90;;;;;;;-0.14;94.44;100848.07;107698;1256;101303;-56
2023/02/03 01:57:30;;;;;;;14.20;4.50;;;;;;;-0.14;94.24;100847.84;107671;1251;88813;-56
2023/02/03 02:00:14;;;;;;;12.00;4.70;;;;;;;-0.09;94.11;100848.05;107744;1254;94322;-58
2023/02/03 02:02:53;;;;;;;9.30;3.70;;;;;;;-0.10;94.09;100853.38;107738;1253;80277;-59
2023/02/03 02:05:35;;;;;;;4.90;3.30;;;;;;;-0.03;93.98;100852.91;107773;1251;83756;-56
2023/02/03 02:08:21;;;;;;;6.30;3.30;;;;;;;-0.03;93.86;100851.83;107704;1254;97291;-56
2023/02/03 02:11:01;;;;;;;6.00;2.60;;;;;;;-0.06;93.71;100844.30;107715;1251;88645;-56
2023/02/03 02:13:44;;;;;;;5.50;3.20;;;;;;;-0.06;93.58;100841.63;107719;1254;93880;-56
2023/02/03 02:16:28;;;;;;;5.80;2.50;;;;;;;-0.10;93.51;100835.20;107674;1254;80543;-55
2023/02/03 02:19:36;;;;;;;5.10;2.80;;;;;;;-0.13;93.44;100833.45;107700;1255;82956;-56
2023/02/03 02:22:24;;;;;;;4.30;2.30;;;;;;;-0.16;93.19;100832.77;107682;1254;97003;-55
2023/02/03 02:25:48;;;;;;;4.10;2.10;;;;;;;-0.17;93.22;100830.04;107733;1250;87620;-56
2023/02/03 02:29:06;;;;;;;5.50;2.20;;;;;;;-0.22;93.10;100827.54;107720;1254;94736;-55
2023/02/03 02:32:14;;;;;;;4.70;2.40;;;;;;;-0.28;92.95;100828.00;107721;1251;80525;-57
2023/02/03 02:35:04;;;;;;;3.40;2.00;;;;;;;-0.39;92.92;100826.50;107801;1253;82058;-59
2023/02/03 02:37:52;;;;;;;6.40;2.90;;;;;;;-0.49;92.84;100821.25;107753;1250;98510;-58
2023/02/03 02:40:38;;;;;;;5.30;2.50;;;;;;;-0.59;92.73;100810.98;107715;1254;87896;-56
2023/02/03 02:43:21;;;;;;;2.90;1.70;;;;;;;-0.72;92.57;100806.06;107724;1254;92333;-60
2023/02/03 02:46:04;;;;;;;5.10;2.60;;;;;;;-0.84;92.49;100806.70;107730;1251;80481;-59
2023/02/03 02:48:47;;;;;;;4.00;2.10;;;;;;;-1.00;92.38;100806.06;107761;1250;81293;-59
2023/02/03 02:51:33;;;;;;;5.30;2.60;;;;;;;-1.08;92.32;100805.77;107699;1251;99017;-60
2023/02/03 02:54:25;;;;;;;5.60;2.50;;;;;;;-1.10;92.52;100808.92;107705;1250;87645;-56
2023/02/03 02:57:06;;;;;;;7.20;2.60;;;;;;;-1.16;92.60;100810.72;107724;1253;94420;-57
2023/02/03 02:59:48;;;;;;;6.70;2.60;;;;;;;-1.22;92.60;100808.13;107718;1251;80515;-59
2023/02/03 03:02:31;;;;;;;6.50;2.50;;;;;;;-1.30;92.52;100808.67;107720;1253;81534;-59
2023/02/03 03:05:21;;;;;;;4.40;2.30;;;;;;;-1.35;92.47;100810.30;107741;1256;98620;-58
2023/02/03 03:08:02;;;;;;;5.70;2.30;;;;;;;-1.41;92.69;100812.96;107693;1255;89044;-58
2023/02/03 03:10:46;;;;;;;6.10;2.60;;;;;;;-1.44;92.50;100817.27;107660;1256;93897;-59
2023/02/03 03:13:26;;;;;;;8.80;2.70;;;;;;;-1.49;92.55;100815.34;107667;1251;79327;-56
2023/02/03 03:16:14;;;;;;;6.40;2.50;;;;;;;-1.49;92.54;100813.35;107708;1251;82958;-56
2023/02/03 03:18:57;;;;;;;4.30;2.30;;;;;;;-1.47;92.80;100814.44;107709;1256;98238;-56
2023/02/03 03:21:39;;;;;;;6.10;2.50;;;;;;;-1.51;92.77;100811.93;107735;1256;88399;-55
2023/02/03 03:24:22;;;;;;;6.70;2.80;;;;;;;-1.53;92.70;100816.64;107754;1253;95497;-58
2023/02/03 03:27:07;;;;;;;5.70;2.80;;;;;;;-1.55;92.74;100815.38;107650;1251;80805;-58
2023/02/03 03:29:52;;;;;;;5.70;2.60;;;;;;;-1.62;92.80;100813.88;107690;1256;81705;-57
2023/02/03 03:32:32;;;;;;;5.80;3.20;;;;;;;-1.66;92.72;100803.93;107704;1253;98765;-56
2023/02/03 03:35:10;;;;;;;5.70;3.10;;;;;;;-1.70;92.70;100804.54;107731;1255;89257;-58
2023/02/03 03:37:51;;;;;;;5.90;2.90;;;;;;;-1.73;92.82;100799.29;107689;1255;91579;-58
2023/02/03 03:40:39;;;;;;;7.40;3.20;;;;;;;-1.74;92.98;100795.08;107724;1253;79686;-59
2023/02/03 03:43:17;;;;;;;;;;;;;;;-1.75;93.07;100795.14;107752;1254;81178;-57
2023/02/03 03:46:13;;;;;;;6.10;3.50;;;;;;;-1.76;93.08;100790.15;107712;1251;98068;-56
2023/02/03 03:49:01;;;;;;;6.60;3.50;;;;;;;-1.76;93.14;100791.02;107709;1253;88715;-58
2023/02/03 03:51:45;;;;;;;6.90;3.80;;;;;;;-1.82;92.91;100789.04;107679;1254;94578;-57
2023/02/03 03:54:23;;;;;;;5.70;3.50;;;;;;;-1.84;93.02;100790.60;107713;1251;82681;-56
2023/02/03 03:57:08;;;;;;;6.60;4.00;;;;;;;-1.86;92.98;100788.83;107339;1251;493024;-56
2023/02/03 03:59:50;;;;;;;9.90;4.30;;;;;;;-1.87;92.94;100793.66;107713;1254;95930;-58
2023/02/03 04:02:39;;;;;;;12.60;5.40;;;;;;;-1.91;92.98;100791.46;107690;1253;88393;-58
2023/02/03 04:05:20;;;;;;;11.20;5.80;;;;;;;-1.93;92.82;100793.88;107731;1255;95417;-58
2023/02/03 04:08:02;;;;;;;12.00;6.60;;;;;;;-1.92;92.96;100797.19;107631;1254;78480;-58
2023/02/03 04:10:42;;;;;;;12.10;7.00;;;;;;;-1.95;92.95;100793.61;107697;1251;81815;-59
2023/02/03 04:13:26;;;;;;;12.20;5.90;;;;;;;-1.97;92.96;100796.82;107727;1251;98049;-57
2023/02/03 04:16:07;;;;;;;12.60;6.90;;;;;;;-2.02;93.04;100800.46;107714;1254;89180;-57
2023/02/03 04:18:47;;;;;;;13.10;7.80;;;;;;;-2.08;93.07;100804.77;107704;1256;94810;-57
2023/02/03 04:21:26;;;;;;;9.80;5.90;;;;;;;-2.14;92.99;100803.54;107628;1256;79182;-57
2023/02/03 04:24:06;;;;;;;40.30;15.90;;;;;;;-2.16;93.04;100803.17;107672;1256;82528;-58
2023/02/03 04:26:44;;;;;;;23.30;11.80;;;;;;;-2.15;92.94;100805.02;107608;1256;98109;-58
2023/02/03 04:29:24;;;;;;;27.70;12.80;;;;;;;-2.20;92.93;100802.71;107718;1255;88612;-58
2023/02/03 04:32:06;;;;;;;21.00;9.40;;;;;;;-2.24;93.16;100801.91;107609;1251;95429;-58
2023/02/03 04:34:48;;;;;;;;;;;;;;;-2.24;93.08;100802.11;107674;1254;81949;-56
2023/02/03 04:37:26;;;;;;;10.80;6.30;;;;;;;-2.26;93.13;100802.78;107639;1251;83536;-56
2023/02/03 04:40:07;;;;;;;10.40;6.20;;;;;;;-2.25;93.32;100800.79;107649;1251;98572;-57
2023/02/03 04:42:47;;;;;;;8.90;5.70;;;;;;;-2.25;93.32;100802.48;107645;1256;88707;-56
2023/02/03 04:45:29;;;;;;;10.30;5.50;;;;;;;-2.25;93.25;100799.88;107633;1256;94397;-56
2023/02/03 04:48:06;;;;;;;9.70;5.40;;;;;;;-2.25;93.36;100793.70;107643;1255;79775;-55
2023/02/03 04:50:43;;;;;;;10.60;5.60;;;;;;;-2.22;93.30;100793.67;107716;1250;82887;-56
2023/02/03 04:53:23;;;;;;;8.00;5.10;;;;;;;-2.20;93.38;100794.64;107709;1251;98431;-54
2023/02/03 04:56:06;;;;;;;11.20;6.00;;;;;;;-2.18;93.24;100795.20;107686;1256;88421;-55
2023/02/03 04:58:46;;;;;;;10.40;5.30;;;;;;;-2.21;93.51;100791.48;107712;1264;95666;-56
2023/02/03 05:01:26;;;;;;;10.50;6.40;;;;;;;-2.24;93.11;100786.55;107670;1255;80488;-56
2023/02/03 05:04:07;;;;;;;9.60;5.60;;;;;;;-2.22;93.36;100782.02;107698;1253;82563;-54
2023/02/03 05:06:44;;;;;;;7.40;5.50;;;;;;;-2.23;93.24;100780.72;107682;1251;95489;-54
2023/02/03 05:09:21;;;;;;;10.40;5.60;;;;;;;-2.25;93.08;100774.81;107681;1251;89688;-57
2023/02/03 05:11:56;;;;;;;11.80;6.10;;;;;;;-2.29;93.08;100775.27;107691;1252;93578;-56
2023/02/03 05:14:40;;;;;;;9.70;5.90;;;;;;;-2.33;93.18;100775.88;107690;1251;79209;-54
2023/02/03 05:17:24;;;;;;;9.70;6.70;;;;;;;-2.39;93.18;100773.61;107639;1255;82618;-54
2023/02/03 05:20:05;;;;;;;13.30;8.00;;;;;;;-2.46;92.97;100770.71;107648;1251;98773;-56
2023/02/03 05:22:46;;;;;;;11.60;6.60;;;;;;;-2.52;93.10;100767.44;107622;1256;86716;-57
2023/02/03 05:25:23;;;;;;;9.90;6.50;;;;;;;-2.57;93.04;100762.43;107679;1251;95147;-57
2023/02/03 05:28:04;;;;;;;11.10;6.60;;;;;;;-2.62;93.14;100757.30;107602;1251;80784;-55
2023/02/03 05:30:39;;;;;;;11.20;6.50;;;;;;;-2.65;92.91;100754.48;107680;1251;81046;-56
2023/02/03 05:33:21;;;;;;;11.80;6.10;;;;;;;-2.68;92.93;100748.15;107633;1255;98994;-54
2023/02/03 05:36:06;;;;;;;11.60;6.90;;;;;;;-2.69;93.09;100749.28;107591;1256;88480;-54
2023/02/03 05:38:49;;;;;;;12.20;6.10;;;;;;;-2.67;93.08;100749.01;107637;1256;94679;-56
2023/02/03 05:44:25;;;;;;;10.50;6.50;;;;;;;-2.68;93.23;100754.49;107707;1255;80410;-59
2023/02/03 05:47:03;;;;;;;9.50;6.30;;;;;;;-2.70;93.26;100743.53;107751;1254;98133;-58
2023/02/03 05:49:42;;;;;;;10.10;6.00;;;;;;;-2.73;93.21;100744.77;107751;1251;90076;-54
2023/02/03 05:52:22;;;;;;;8.50;5.20;;;;;;;-2.73;93.44;100744.05;107691;1251;92452;-54
2023/02/03 05:55:02;;;;;;;10.80;5.30;;;;;;;-2.70;93.44;100746.89;107690;1254;80270;-56
2023/02/03 05:57:44;;;;;;;10.20;5.90;;;;;;;-2.66;93.52;100744.18;107686;1255;82098;-56
2023/02/03 06:00:24;;;;;;;9.20;5.40;;;;;;;-2.61;93.66;100742.27;107629;1255;98901;-55
2023/02/03 06:03:03;;;;;;;10.50;5.40;;;;;;;-2.56;93.62;100743.65;107649;1254;87836;-55
2023/02/03 06:05:40;;;;;;;9.40;5.10;;;;;;;-2.50;93.70;100746.48;107665;1251;95352;-58
2023/02/03 06:08:14;;;;;;;10.10;5.20;;;;;;;-2.47;93.87;100748.92;107635;1256;81666;-56
2023/02/03 06:10:48;;;;;;;9.60;5.20;;;;;;;-2.42;93.80;100746.14;107638;1252;82505;-57
2023/02/03 06:13:26;;;;;;;9.50;5.40;;;;;;;-2.32;94.02;100743.34;107647;1251;99468;-54
2023/02/03 06:16:06;;;;;;;8.40;4.90;;;;;;;-2.27;94.07;100735.44;107619;1257;89492;-55
2023/02/03 06:18:41;;;;;;;10.00;5.40;;;;;;;-2.24;93.94;100731.20;107631;1252;94029;-56
2023/02/03 06:21:20;;;;;;;8.90;5.20;;;;;;;-2.24;94.06;100726.25;107627;1251;80235;-57
2023/02/03 06:23:57;;;;;;;9.30;5.20;;;;;;;-2.24;93.97;100718.13;107678;1254;80007;-57
2023/02/03 06:26:37;;;;;;;8.60;5.10;;;;;;;-2.22;94.13;100714.13;107640;1251;98117;-58
2023/02/03 06:29:25;;;;;;;9.40;5.50;;;;;;;-2.18;94.15;100714.03;107656;1251;89493;-58
2023/02/03 06:32:08;;;;;;;10.30;5.20;;;;;;;-2.12;94.19;100710.96;107648;1254;94954;-55
2023/02/03 06:34:50;;;;;;;9.50;5.00;;;;;;;-2.10;94.11;100709.60;107647;1251;79726;-55
2023/02/03 06:37:36;;;;;;;11.30;5.80;;;;;;;-2.09;94.09;100704.27;107657;1251;81937;-57
2023/02/03 06:40:13;;;;;;;11.30;4.90;;;;;;;-2.10;94.20;100696.71;107696;1254;98784;-55
2023/02/03 06:42:52;;;;;;;9.90;6.00;;;;;;;-2.04;94.36;100696.86;107730;1251;88573;-55
2023/02/03 06:45:40;;;;;;;9.00;5.70;;;;;;;-1.97;94.49;100692.67;107684;1251;95145;-58
2023/02/03 06:48:16;;;;;;;8.10;4.90;;;;;;;-1.90;94.38;100692.00;107698;1251;80659;-58
2023/02/03 06:51:00;;;;;;;9.40;5.30;;;;;;;-1.76;94.57;100687.71;107677;1255;83371;-58
2023/02/03 06:53:35;;;;;;;10.20;5.10;;;;;;;-1.62;94.45;100680.60;107715;1250;97542;-57
2023/02/03 06:56:16;;;;;;;8.90;5.10;;;;;;;-1.47;94.49;100679.33;107691;1251;88344;-58
2023/02/03 06:58:58;;;;;;;11.60;6.00;;;;;;;-1.33;94.64;100674.46;107680;1251;95185;-56
2023/02/03 07:01:39;;;;;;;9.70;5.40;;;;;;;-1.17;94.74;100662.36;107655;1251;79202;-55
2023/02/03 07:04:16;;;;;;;8.80;5.10;;;;;;;-0.86;94.86;100652.92;107689;1251;82166;-59
2023/02/03 07:06:56;;;;;;;10.80;5.50;;;;;;;-0.52;94.75;100651.25;107641;1254;96943;-59
2023/02/03 07:09:31;;;;;;;9.00;6.30;;;;;;;-0.20;94.75;100643.92;107696;1254;87317;-59
2023/02/03 07:12:06;;;;;;;9.80;5.30;;;;;;;0.13;94.59;100640.09;107804;1252;94233;-58
2023/02/03 07:14:44;;;;;;;10.80;5.70;;;;;;;0.81;94.92;100631.55;107777;1254;79422;-58
2023/02/03 07:17:23;;;;;;;10.30;6.10;;;;;;;1.73;94.46;100625.63;107823;1251;82211;-59
2023/02/03 07:20:07;;;;;;;11.70;6.60;;;;;;;2.70;94.69;100616.27;107798;1253;98378;-58
2023/02/03 07:22:45;;;;;;;8.60;5.00;;;;;;;4.04;94.62;100607.29;107775;1251;88080;-59
2023/02/03 07:25:27;;;;;;;8.30;5.30;;;;;;;4.41;93.31;100599.54;107805;1251;94633;-58
2023/02/03 07:28:06;;;;;;;11.00;6.10;;;;;;;3.95;91.81;100597.86;107768;1253;80238;-59
2023/02/03 07:30:46;;;;;;;9.80;5.80;;;;;;;3.90;91.51;100600.23;107800;1251;83402;-59
2023/02/03 07:33:24;;;;;;;8.40;5.30;;;;;;;4.39;91.47;100597.08;107841;1251;96984;-59
2023/02/03 07:36:07;;;;;;;10.30;6.10;;;;;;;4.82;90.95;100592.85;107824;1251;89056;-60
2023/02/03 07:38:44;;;;;;;10.80;5.30;;;;;;;5.01;89.95;100588.88;107825;1254;93167;-58
2023/02/03 07:41:23;;;;;;;11.60;6.20;;;;;;;5.16;89.91;100585.25;107763;1251;80180;-58
2023/02/03 07:44:01;;;;;;;12.20;7.00;;;;;;;5.37;89.19;100581.05;107693;1251;82815;-57
2023/02/03 07:46:43;;;;;;;8.90;6.30;;;;;;;5.61;88.71;100581.66;107703;1251;98349;-56
2023/02/03 07:49:21;;;;;;;12.70;7.10;;;;;;;5.79;87.63;100574.99;107715;1251;86869;-59
2023/02/03 07:52:06;;;;;;;11.10;6.90;;;;;;;5.82;86.83;100567.90;107681;1251;94216;-54
2023/02/03 07:54:47;;;;;;;11.50;7.10;;;;;;;5.55;86.68;100566.36;107711;1251;78247;-55
2023/02/03 07:57:26;;;;;;;11.00;7.20;;;;;;;5.54;86.32;100560.58;107741;1254;83667;-55
2023/02/03 08:00:05;;;;;;;11.00;6.10;;;;;;;5.64;86.34;100549.89;107727;1251;97538;-58
2023/02/03 08:02:45;;;;;;;10.20;6.50;;;;;;;5.77;85.70;100550.55;107764;1251;87543;-57
2023/02/03 08:05:24;;;;;;;12.00;7.20;;;;;;;5.68;85.43;100547.02;107761;1254;92003;-54
2023/02/03 08:08:05;;;;;;;9.80;5.60;;;;;;;5.48;85.16;100545.98;107729;1254;79945;-55
2023/02/03 08:10:44;;;;;;;8.60;5.10;;;;;;;5.40;84.84;100545.05;107749;1251;81755;-54
2023/02/03 08:13:22;;;;;;;10.00;5.70;;;;;;;5.56;84.03;100539.33;107747;1251;98623;-55
2023/02/03 08:16:02;;;;;;;10.00;5.70;;;;;;;5.53;83.93;100532.09;107700;1250;87315;-56
2023/02/03 08:18:46;;;;;;;9.30;5.70;;;;;;;5.72;83.00;100534.05;107764;1250;95468;-57
2023/02/03 08:21:26;;;;;;;8.00;5.40;;;;;;;6.10;81.85;100523.62;107732;1250;78604;-57
2023/02/03 08:24:05;;;;;;;7.50;4.70;;;;;;;6.46;81.52;100515.24;107687;1254;82408;-56
2023/02/03 08:26:43;;;;;;;8.30;5.40;;;;;;;6.62;81.13;100509.91;107742;1250;98464;-55
2023/02/03 08:29:18;;;;;;;8.30;5.00;;;;;;;6.60;81.05;100506.38;107707;1256;88048;-57
2023/02/03 08:31:57;;;;;;;8.30;4.40;;;;;;;6.51;79.63;100503.16;107683;1251;94502;-58
2023/02/03 08:34:34;;;;;;;7.90;5.20;;;;;;;6.07;78.15;100507.00;107738;1250;80715;-60
2023/02/03 08:37:19;;;;;;;6.80;4.70;;;;;;;5.55;79.35;100504.56;107743;1250;80767;-62
2023/02/03 08:40:05;;;;;;;10.30;5.50;;;;;;;5.29;79.34;100499.98;107726;1254;97983;-57
2023/02/03 08:42:47;;;;;;;6.80;4.40;;;;;;;5.07;79.33;100488.91;107710;1250;88055;-58
2023/02/03 08:45:36;;;;;;;8.50;4.70;;;;;;;4.77;79.71;100486.85;107757;1254;94802;-61
2023/02/03 08:48:13;;;;;;;10.70;6.20;;;;;;;4.61;79.96;100479.88;107777;1254;80160;-57
2023/02/03 08:51:00;;;;;;;8.30;4.80;;;;;;;4.50;79.90;100477.23;107776;1251;80440;-57
2023/02/03 08:53:40;;;;;;;7.60;5.20;;;;;;;4.55;79.62;100476.20;107738;1250;98345;-60
2023/02/03 08:56:26;;;;;;;8.70;4.90;;;;;;;4.50;79.50;100474.19;107791;1251;89286;-59
2023/02/03 08:59:03;;;;;;;11.10;5.40;;;;;;;4.55;79.97;100465.10;107775;1251;95247;-61
2023/02/03 09:01:47;;;;;;;9.00;4.90;;;;;;;4.53;79.89;100457.11;107704;1250;80661;-61
2023/02/03 09:04:29;;;;;;;9.60;5.30;;;;;;;4.51;79.82;100450.03;107734;1250;83024;-60
2023/02/03 09:07:09;;;;;;;8.30;5.10;;;;;;;4.47;79.77;100447.03;107735;1250;96438;-61
2023/02/03 09:09:50;;;;;;;8.80;5.20;;;;;;;4.35;80.23;100440.01;107774;1255;87964;-61
2023/02/03 09:12:33;;;;;;;9.60;5.10;;;;;;;4.57;80.34;100436.55;107729;1250;92985;-61
2023/02/03 09:15:09;;;;;;;8.60;4.90;;;;;;;4.64;79.91;100434.59;107723;1250;77632;-57
2023/02/03 09:17:46;;;;;;;9.40;5.20;;;;;;;4.83;80.00;100432.75;107778;1250;82733;-57
2023/02/03 09:20:24;;;;;;;8.80;4.70;;;;;;;4.83;80.11;100428.48;107737;1251;98949;-58
2023/02/03 09:23:05;;;;;;;8.40;5.00;;;;;;;4.81;80.57;100423.16;107716;1250;88617;-57
2023/02/03 09:25:45;;;;;;;9.00;5.00;;;;;;;4.86;80.46;100418.00;107757;1250;94937;-57
2023/02/03 09:28:22;;;;;;;10.00;4.90;;;;;;;4.92;79.34;100407.38;107786;1250;78944;-57
2023/02/03 09:31:06;;;;;;;8.40;4.00;;;;;;;5.00;79.09;100405.02;107791;1252;81553;-58
2023/02/03 09:33:42;;;;;;;8.80;4.60;;;;;;;4.92;78.77;100399.19;107762;1251;98149;-57
2023/02/03 09:36:19;;;;;;;7.40;3.70;;;;;;;4.81;78.38;100389.58;107735;1251;88219;-56
2023/02/03 09:39:05;;;;;;;7.60;4.00;;;;;;;4.77;78.09;100382.15;107730;1250;94834;-56
2023/02/03 09:42:08;;;;;;;7.20;4.50;;;;;;;4.78;77.41;100372.42;107649;1251;79130;-56
2023/02/03 09:44:58;;;;;;;6.50;3.90;;;;;;;4.93;77.16;100363.90;107759;1251;80093;-60
2023/02/03 09:47:39;;;;;;;5.50;3.90;;;;;;;5.15;77.55;100353.30;107723;1254;97160;-59
2023/02/03 09:50:26;;;;;;;6.40;3.60;;;;;;;5.15;76.48;100350.96;107776;1250;87866;-60
2023/02/03 09:53:27;;;;;;;6.50;3.30;;;;;;;5.19;75.08;100345.77;107719;1251;94693;-57
2023/02/03 09:56:07;;;;;;;7.70;2.70;;;;;;;5.17;73.03;100340.17;107698;1257;79544;-58
2023/02/03 09:58:45;;;;;;;4.70;3.00;;;;;;;4.94;72.36;100336.14;107700;1251;81916;-57
2023/02/03 10:01:21;;;;;;;6.00;3.10;;;;;;;4.77;73.60;100328.63;107657;1251;98032;-58
2023/02/03 10:04:04;;;;;;;5.00;2.90;;;;;;;4.76;74.56;100315.91;107732;1254;88533;-58
2023/02/03 10:06:44;;;;;;;;;;;;;;;4.85;74.68;100306.59;107666;1251;92749;-57
2023/02/03 10:09:54;;;;;;;7.40;2.80;;;;;;;4.96;74.22;100303.27;107669;1250;80299;-61
2023/02/03 10:13:13;;;;;;;5.30;3.30;;;;;;;5.38;73.82;100289.85;107581;1251;82268;-60
2023/02/03 10:16:19;;;;;;;5.90;2.90;;;;;;;5.78;73.41;100280.80;107628;1251;99706;-57
2023/02/03 10:18:57;;;;;;;6.20;3.50;;;;;;;5.81;74.22;100274.59;107703;1254;87586;-59
2023/02/03 10:21:40;;;;;;;6.10;3.00;;;;;;;5.99;72.50;100268.02;107616;1254;94895;-59
2023/02/03 10:24:29;;;;;;;5.40;3.20;;;;;;;5.82;69.70;100264.59;107628;1251;79336;-57
2023/02/03 10:27:19;;;;;;;5.30;2.70;;;;;;;5.41;70.45;100252.77;107666;1253;82588;-57
2023/02/03 10:30:03;;;;;;;4.50;2.50;;;;;;;5.34;70.43;100243.30;107640;1251;98303;-59
2023/02/03 10:32:45;;;;;;;4.40;2.50;;;;;;;5.18;70.01;100234.08;107671;1256;87890;-59
2023/02/03 10:35:32;;;;;;;5.30;2.30;;;;;;;4.91;70.74;100226.55;107684;1251;95400;-56
2023/02/03 10:38:23;;;;;;;4.10;2.30;;;;;;;4.48;70.40;100224.58;107671;1251;80291;-58
2023/02/03 10:41:05;;;;;;;4.50;2.40;;;;;;;4.31;71.56;100221.69;107695;1251;82656;-59
2023/02/03 10:43:51;;;;;;;6.20;2.50;;;;;;;4.19;71.15;100217.31;107692;1250;98755;-59
2023/02/03 10:46:38;;;;;;;7.10;2.50;;;;;;;4.07;70.60;100209.30;107681;1251;90488;-61
2023/02/03 10:49:17;;;;;;;5.30;2.80;;;;;;;3.98;71.52;100201.30;107611;1251;92405;-56
2023/02/03 10:52:02;;;;;;;5.20;2.50;;;;;;;4.01;71.16;100190.48;107661;1251;78993;-56
2023/02/03 10:54:44;;;;;;;5.10;3.00;;;;;;;4.01;71.97;100174.94;107688;1251;81294;-57
2023/02/03 10:57:28;;;;;;;5.60;2.90;;;;;;;4.06;72.25;100170.17;107613;1254;98577;-57
2023/02/03 11:00:29;;;;;;;5.50;2.20;;;;;;;3.94;71.98;100157.73;107694;1251;88894;-59
2023/02/03 11:03:23;;;;;;;3.70;2.00;;;;;;;3.77;72.21;100146.27;107636;1251;95334;-57
2023/02/03 11:06:12;;;;;;;4.70;2.20;;;;;;;3.74;72.37;100138.55;107678;1251;80184;-59
2023/02/03 11:08:50;;;;;;;5.10;2.30;;;;;;;3.54;71.11;100124.79;107708;1250;82515;-56
2023/02/03 11:11:32;;;;;;;4.30;2.70;;;;;;;3.28;70.85;100116.76;107706;1254;97175;-55
2023/02/03 11:14:28;;;;;;;5.10;2.70;;;;;;;3.14;70.99;100102.52;107672;1251;88110;-58
2023/02/03 11:17:10;;;;;;;6.30;2.30;;;;;;;2.96;70.93;100090.71;107674;1254;93579;-59
2023/02/03 11:19:51;;;;;;;6.90;2.50;;;;;;;2.84;71.37;100076.98;107666;1254;79978;-60
2023/02/03 11:22:36;;;;;;;7.10;3.10;;;;;;;2.81;71.09;100066.71;107663;1254;81561;-60
2023/02/03 11:25:35;;;;;;;4.00;2.30;;;;;;;2.73;71.56;100058.70;107642;1252;98463;-62
2023/02/03 11:28:18;;;;;;;5.20;2.60;;;;;;;2.68;71.91;100046.31;107651;1251;88968;-58
2023/02/03 11:30:59;;;;;;;3.80;2.40;;;;;;;2.68;71.62;100039.77;107608;1251;92201;-58
2023/02/03 11:33:34;;;;;;;6.00;2.50;;;;;;;2.62;71.53;100029.37;107660;1251;80160;-57
2023/02/03 11:36:13;;;;;;;7.00;3.10;;;;;;;2.46;71.76;100020.92;107686;1251;81267;-56
2023/02/03 11:38:47;;;;;;;5.70;2.70;;;;;;;2.38;71.38;100012.77;107723;1251;96693;-60
2023/02/03 11:41:23;;;;;;;5.40;2.70;;;;;;;2.31;71.03;100003.04;107718;1254;87252;-59
2023/02/03 11:44:15;;;;;;;6.10;3.20;;;;;;;2.21;71.50;99993.48;107756;1252;94952;-60
2023/02/03 11:46:57;;;;;;;4.70;2.90;;;;;;;2.11;71.44;99993.02;107689;1252;76349;-60
2023/02/03 11:50:13;;;;;;;5.00;2.50;;;;;;;2.10;71.36;99991.90;107692;1251;80872;-59
2023/02/03 11:53:06;;;;;;;5.80;2.60;;;;;;;2.09;72.30;99986.67;107661;1251;97733;-59
2023/02/03 11:55:59;;;;;;;6.30;2.70;;;;;;;2.13;72.18;99978.98;107633;1251;88779;-57
2023/02/03 11:59:02;;;;;;;3.70;2.50;;;;;;;2.11;71.56;99978.01;107407;1251;93911;-57
2023/02/03 12:02:03;;;;;;;5.40;2.10;;;;;;;2.07;71.69;99969.34;107639;1253;77937;-56
2023/02/03 12:05:02;;;;;;;5.50;3.00;;;;;;;2.15;72.63;99959.60;107655;1251;80791;-60
2023/02/03 12:08:05;;;;;;;4.50;2.30;;;;;;;2.18;72.67;99960.34;107655;1253;97290;-58
2023/02/03 12:10:57;;;;;;;4.60;2.50;;;;;;;2.16;72.13;99949.22;107638;1254;88743;-57
2023/02/03 12:14:04;;;;;;;6.30;2.60;;;;;;;2.13;72.02;99944.84;107647;1253;95655;-57
2023/02/03 12:17:11;;;;;;;6.80;2.90;;;;;;;2.09;72.24;99935.34;107658;1254;79131;-57
2023/02/03 12:20:03;;;;;;;5.00;2.40;;;;;;;2.07;71.95;99929.34;107702;1251;82350;-57
2023/02/03 12:22:50;;;;;;;6.70;2.70;;;;;;;2.01;72.19;99925.30;107686;1254;97404;-56
2023/02/03 12:25:48;;;;;;;5.70;2.60;;;;;;;2.04;72.27;99916.64;107700;1254;88745;-59
2023/02/03 12:28:50;;;;;;;5.10;2.20;;;;;;;2.09;72.94;99910.86;107666;1251;94941;-58
2023/02/03 12:31:34;;;;;;;4.90;3.10;;;;;;;2.07;73.16;99902.88;107697;1251;76518;-57
2023/02/03 12:34:25;;;;;;;5.90;2.60;;;;;;;2.04;73.00;99894.98;107692;1251;83343;-60
2023/02/03 12:37:12;;;;;;;5.10;3.00;;;;;;;1.99;73.33;99888.55;107624;1254;98855;-59